Time;durP1;ratioP1;P1;durP2;ratioP2;P2;SDS_P1;SDS_P2;PMS_P1;PMS_P2;Temp;Humidity;BMP_temperature;BMP_pressure;BME280_temperature;BME280_humidity;BME280_pressure;Samples;Min_cycle;Max_cycle;Signal;HPM_P1;HPM_P2
2023/05/22 00:01:05;;;;;;;6.85;4.32;;;;;;;18.50;47.14;101447.81;5079823;28;20098;-61
2023/05/22 00:03:32;;;;;;;8.60;4.57;;;;;;;18.45;47.25;101448.13;5081468;28;20180;-61
2023/05/22 00:05:59;;;;;;;8.02;4.25;;;;;;;18.43;47.31;101447.38;5078759;28;20052;-60
2023/05/22 00:08:26;;;;;;;6.28;4.05;;;;;;;18.40;47.27;101452.06;5091337;28;20039;-61
2023/05/22 00:10:55;;;;;;;5.60;3.95;;;;;;;18.42;47.28;101443.00;5092073;28;20055;-60
2023/05/22 00:13:22;;;;;;;5.82;4.18;;;;;;;18.37;47.64;101445.09;5084876;28;20044;-60
2023/05/22 00:15:48;;;;;;;6.43;3.88;;;;;;;18.32;47.95;101434.72;5082533;28;20420;-60
2023/05/22 00:18:15;;;;;;;6.28;4.28;;;;;;;18.27;47.87;101436.84;5077626;28;20341;-60
2023/05/22 00:20:45;;;;;;;8.75;3.95;;;;;;;18.22;47.82;101432.75;5087569;28;20112;-60
2023/05/22 00:23:12;;;;;;;5.53;3.88;;;;;;;18.21;47.85;101441.75;5088667;28;20060;-61
2023/05/22 00:25:41;;;;;;;6.00;4.40;;;;;;;18.16;48.11;101431.34;5073756;28;20078;-61
2023/05/22 00:28:07;;;;;;;8.57;4.15;;;;;;;18.10;48.30;101440.66;5078515;28;20057;-60
2023/05/22 00:30:35;;;;;;;6.75;4.22;;;;;;;18.18;47.90;101432.13;5078284;28;20054;-60
2023/05/22 00:33:02;;;;;;;6.28;4.18;;;;;;;18.21;47.62;101426.56;5079039;28;20053;-60
2023/05/22 00:35:29;;;;;;;7.55;3.90;;;;;;;18.24;47.78;101428.16;5088110;28;20040;-61
2023/05/22 00:37:56;;;;;;;8.82;4.32;;;;;;;18.14;47.90;101430.59;5093696;28;20048;-61
2023/05/22 00:40:23;;;;;;;8.95;3.83;;;;;;;18.08;48.42;101431.88;5082867;28;20165;-60
2023/05/22 00:42:49;;;;;;;10.95;3.90;;;;;;;18.08;48.12;101426.53;5093462;28;20051;-61
2023/05/22 00:45:16;;;;;;;6.22;4.20;;;;;;;18.07;48.10;101427.47;5084001;28;20456;-60
2023/05/22 00:47:43;;;;;;;9.93;4.78;;;;;;;17.98;48.41;101426.28;5075088;28;20138;-60
2023/05/22 00:50:11;;;;;;;8.85;3.92;;;;;;;17.95;48.55;101428.31;5082576;28;20076;-60
2023/05/22 00:52:41;;;;;;;6.00;3.88;;;;;;;17.89;48.64;101416.19;5073016;28;20575;-61
2023/05/22 00:55:09;;;;;;;4.53;3.53;;;;;;;17.93;48.43;101422.19;5085413;28;20062;-60
2023/05/22 00:57:40;;;;;;;6.82;4.18;;;;;;;17.89;48.41;101426.88;5082815;28;20380;-61
2023/05/22 01:00:12;;;;;;;6.43;3.95;;;;;;;17.82;48.65;101422.88;5084657;28;20135;-61
2023/05/22 01:02:41;;;;;;;5.72;4.13;;;;;;;17.73;49.05;101421.63;5074846;28;20054;-61
2023/05/22 01:05:11;;;;;;;7.05;4.97;;;;;;;17.72;48.95;101414.59;5091682;28;20052;-61
2023/05/22 01:07:38;;;;;;;9.13;3.83;;;;;;;17.61;49.09;101415.28;5085600;28;20048;-61
2023/05/22 01:10:06;;;;;;;6.30;4.25;;;;;;;17.58;49.35;101422.66;5085561;28;20063;-60
2023/05/22 01:12:58;;;;;;;8.25;3.92;;;;;;;17.45;49.72;101419.06;5080538;28;20150;-60
2023/05/22 01:15:42;;;;;;;7.47;3.95;;;;;;;17.41;49.76;101411.22;5077527;28;20425;-61
2023/05/22 01:18:30;;;;;;;5.30;3.50;;;;;;;17.33;50.16;101413.53;5092880;28;20096;-60
2023/05/22 01:21:03;;;;;;;9.63;4.15;;;;;;;17.25;50.11;101418.50;5079625;28;20123;-60
2023/05/22 01:23:56;;;;;;;9.98;4.07;;;;;;;17.23;50.40;101423.09;5084945;28;20044;-60
2023/05/22 01:26:41;;;;;;;7.57;3.95;;;;;;;17.18;50.56;101414.47;5078117;28;20127;-60
2023/05/22 01:29:25;;;;;;;6.15;3.75;;;;;;;17.13;50.72;101411.25;5082186;28;20143;-60
2023/05/22 01:31:54;;;;;;;9.10;5.07;;;;;;;17.08;50.47;101408.88;5091433;28;20084;-60
2023/05/22 01:34:21;;;;;;;24.65;4.53;;;;;;;17.04;50.74;101412.69;5084245;28;20534;-60
2023/05/22 01:36:49;;;;;;;8.63;4.03;;;;;;;16.96;51.01;101421.19;5074723;28;20051;-60
2023/05/22 01:39:16;;;;;;;5.53;3.90;;;;;;;16.95;51.11;101418.59;5082002;28;20040;-60
2023/05/22 01:41:43;;;;;;;6.60;3.72;;;;;;;16.93;51.03;101413.34;5077796;28;20083;-60
2023/05/22 01:44:10;;;;;;;7.88;3.95;;;;;;;16.99;50.61;101415.66;5079612;28;20071;-60
2023/05/22 01:46:36;;;;;;;9.23;4.57;;;;;;;16.87;51.15;101411.09;5082193;28;20124;-60
2023/05/22 01:49:03;;;;;;;5.82;3.67;;;;;;;16.81;51.21;101411.41;5078716;28;20392;-60
2023/05/22 01:51:52;;;;;;;8.52;4.20;;;;;;;16.80;51.20;101415.88;5089225;28;20690;-60
2023/05/22 01:54:41;;;;;;;10.23;3.72;;;;;;;16.86;50.96;101420.03;5089461;28;20048;-61
2023/05/22 01:57:26;;;;;;;9.73;3.78;;;;;;;16.78;51.12;101417.78;5088765;28;20048;-60
2023/05/22 01:59:58;;;;;;;6.72;3.85;;;;;;;16.73;51.56;101413.69;5080637;28;20051;-60
2023/05/22 02:02:27;;;;;;;10.30;4.00;;;;;;;16.74;51.49;101418.06;5087087;28;20086;-60
2023/05/22 02:04:59;;;;;;;8.23;4.75;;;;;;;16.68;51.40;101428.16;5080449;28;20131;-60
2023/05/22 02:07:27;;;;;;;10.05;3.80;;;;;;;16.64;51.50;101425.78;5083310;28;20051;-60
2023/05/22 02:09:55;;;;;;;5.30;3.60;;;;;;;16.58;51.63;101420.84;5082865;28;20047;-60
2023/05/22 02:12:23;;;;;;;14.52;3.83;;;;;;;16.54;51.73;101419.28;5083554;28;20052;-60
2023/05/22 02:14:50;;;;;;;9.82;5.05;;;;;;;16.52;51.88;101416.72;5078117;28;20056;-60
2023/05/22 02:17:17;;;;;;;6.57;3.75;;;;;;;16.48;52.08;101417.84;5076250;28;20068;-60
2023/05/22 02:19:44;;;;;;;8.25;3.85;;;;;;;16.47;52.05;101418.81;5082067;28;20047;-60
2023/05/22 02:22:14;;;;;;;4.68;3.42;;;;;;;16.41;52.04;101419.16;5083689;28;20492;-60
2023/05/22 02:24:45;;;;;;;5.20;3.70;;;;;;;16.48;51.97;101416.03;5074648;28;20048;-61
2023/05/22 02:27:12;;;;;;;6.57;4.18;;;;;;;16.41;51.76;101413.81;5079401;28;20279;-60
2023/05/22 02:29:39;;;;;;;6.07;3.65;;;;;;;16.36;52.45;101415.91;5078799;28;20055;-60
2023/05/22 02:32:06;;;;;;;7.43;3.75;;;;;;;16.36;52.06;101410.56;5076284;28;20052;-60
2023/05/22 02:34:33;;;;;;;9.05;4.60;;;;;;;16.34;52.42;101408.84;5080199;28;20051;-60
2023/05/22 02:37:04;;;;;;;7.50;3.67;;;;;;;16.42;51.59;101416.41;5080446;28;20071;-60
2023/05/22 02:39:31;;;;;;;5.95;4.28;;;;;;;16.39;51.69;101410.41;5080722;28;20040;-60
2023/05/22 02:41:57;;;;;;;8.27;4.43;;;;;;;16.35;51.95;101409.72;5080510;28;20123;-60
2023/05/22 02:44:24;;;;;;;9.18;4.13;;;;;;;16.27;52.31;101412.84;5081213;28;20049;-60
2023/05/22 02:46:50;;;;;;;7.95;4.35;;;;;;;16.20;52.36;101406.16;5089893;28;20151;-60
2023/05/22 02:49:17;;;;;;;8.82;4.55;;;;;;;16.15;52.27;101402.91;5082939;28;20132;-60
2023/05/22 02:51:46;;;;;;;11.85;4.35;;;;;;;16.16;52.30;101409.94;5083826;28;20120;-60
2023/05/22 02:54:14;;;;;;;6.85;4.50;;;;;;;16.14;52.47;101401.19;5089005;28;20436;-60
2023/05/22 02:56:42;;;;;;;6.72;4.03;;;;;;;16.08;52.72;101407.72;5099129;28;20047;-60
2023/05/22 02:59:09;;;;;;;7.38;4.43;;;;;;;16.07;52.60;101400.69;5076061;28;20060;-60
2023/05/22 03:01:37;;;;;;;10.63;4.82;;;;;;;16.00;52.83;101395.78;5091959;28;20075;-61
2023/05/22 03:04:05;;;;;;;7.70;4.63;;;;;;;16.00;52.71;101395.78;5079475;28;20052;-61
2023/05/22 03:06:33;;;;;;;6.25;3.38;;;;;;;15.99;52.80;101383.41;5084490;28;20060;-60
2023/05/22 03:09:00;;;;;;;8.52;3.67;;;;;;;16.09;52.98;101387.25;5081808;28;20074;-60
2023/05/22 03:11:26;;;;;;;7.63;3.67;;;;;;;16.02;53.01;101396.56;5088369;28;20131;-60
2023/05/22 03:13:53;;;;;;;7.25;3.83;;;;;;;15.95;53.30;101388.94;5083477;28;20068;-61
2023/05/22 03:16:19;;;;;;;12.38;4.50;;;;;;;15.94;53.14;101395.22;5089343;28;20155;-60
2023/05/22 03:18:46;;;;;;;13.88;4.10;;;;;;;15.90;53.33;101393.66;5083414;28;20040;-59
2023/05/22 03:21:13;;;;;;;6.18;3.78;;;;;;;15.87;53.62;101393.84;5079726;28;20048;-60
2023/05/22 03:23:39;;;;;;;7.20;4.30;;;;;;;15.84;53.42;101388.69;5078359;28;20144;-60
2023/05/22 03:26:06;;;;;;;8.25;4.43;;;;;;;15.80;53.60;101387.13;5093076;28;20048;-60
2023/05/22 03:28:33;;;;;;;5.88;4.35;;;;;;;15.83;53.81;101392.31;5095583;28;20105;-59
2023/05/22 03:30:59;;;;;;;10.57;5.22;;;;;;;15.84;53.47;101393.16;5087331;28;20104;-61
2023/05/22 03:33:26;;;;;;;7.97;4.30;;;;;;;15.82;54.37;101390.56;5081431;28;20397;-61
2023/05/22 03:35:53;;;;;;;6.32;4.25;;;;;;;15.81;54.31;101391.53;5090715;28;20064;-61
2023/05/22 03:38:19;;;;;;;9.07;4.22;;;;;;;15.83;54.01;101386.97;5094703;28;20040;-60
2023/05/22 03:40:46;;;;;;;7.95;4.15;;;;;;;15.86;53.86;101392.13;5082940;28;20457;-61
2023/05/22 03:43:13;;;;;;;9.98;4.65;;;;;;;15.94;54.04;101391.69;5084747;28;20041;-61
2023/05/22 03:45:40;;;;;;;7.10;4.10;;;;;;;15.98;53.84;101395.03;5082362;28;20040;-60
2023/05/22 03:48:06;;;;;;;11.40;4.47;;;;;;;16.11;52.95;101393.34;5088503;28;20040;-61
2023/05/22 03:50:34;;;;;;;9.52;5.05;;;;;;;16.17;53.56;101395.66;5089025;28;20044;-61
2023/05/22 03:53:00;;;;;;;8.95;4.30;;;;;;;16.25;52.80;101388.06;5079794;28;20048;-61
2023/05/22 03:55:29;;;;;;;5.60;4.15;;;;;;;16.26;53.25;101384.44;5081538;28;20452;-60
2023/05/22 03:57:56;;;;;;;8.43;4.30;;;;;;;16.33;52.94;101391.16;5086378;28;20044;-60
2023/05/22 04:00:23;;;;;;;5.93;4.07;;;;;;;16.38;52.96;101385.53;5079704;28;20040;-60
2023/05/22 04:02:53;;;;;;;7.78;3.80;;;;;;;16.41;53.13;101387.16;5080030;28;20123;-61
2023/05/22 04:05:20;;;;;;;8.65;4.22;;;;;;;16.45;53.19;101389.53;5085233;28;20060;-60
2023/05/22 04:07:48;;;;;;;7.05;4.53;;;;;;;16.51;52.64;101385.66;5081541;28;20143;-60
2023/05/22 04:10:15;;;;;;;6.57;4.05;;;;;;;16.58;52.91;101384.31;5081189;28;20084;-60
2023/05/22 04:12:42;;;;;;;8.85;4.03;;;;;;;16.62;52.56;101379.66;5083651;28;20044;-60
2023/05/22 04:15:09;;;;;;;29.63;4.70;;;;;;;16.73;51.96;101387.00;5086329;28;20087;-59
2023/05/22 04:17:39;;;;;;;8.05;4.45;;;;;;;16.80;51.85;101383.00;5080953;28;20388;-60
2023/05/22 04:20:07;;;;;;;7.20;4.27;;;;;;;16.88;51.42;101381.59;5086374;28;20056;-60
2023/05/22 04:22:35;;;;;;;9.77;4.85;;;;;;;16.93;51.23;101383.97;5087399;28;20091;-60
2023/05/22 04:25:02;;;;;;;7.55;3.88;;;;;;;16.97;51.28;101384.66;5086051;28;20416;-59
2023/05/22 04:27:29;;;;;;;17.65;4.30;;;;;;;17.00;51.06;101380.00;5085397;28;20147;-60
2023/05/22 04:29:58;;;;;;;8.73;3.90;;;;;;;17.10;50.58;101379.38;5091182;28;20131;-60
2023/05/22 04:32:26;;;;;;;7.80;4.70;;;;;;;17.13;50.66;101384.53;5081576;28;20106;-60
2023/05/22 04:34:53;;;;;;;9.32;4.63;;;;;;;17.17;50.97;101380.72;5080190;28;20056;-60
2023/05/22 04:37:19;;;;;;;8.23;4.57;;;;;;;17.17;50.66;101372.72;5077619;28;20411;-59
2023/05/22 04:39:46;;;;;;;7.68;3.88;;;;;;;17.23;50.82;101377.69;5082790;28;20119;-61
2023/05/22 04:42:14;;;;;;;8.50;4.95;;;;;;;17.26;50.77;101388.16;5081023;28;20045;-60
2023/05/22 04:44:41;;;;;;;8.32;4.00;;;;;;;17.26;51.04;101388.16;5076096;28;20055;-60
2023/05/22 04:47:13;;;;;;;12.48;4.72;;;;;;;17.23;51.51;101380.34;5084142;28;20047;-60
2023/05/22 04:49:44;;;;;;;9.85;3.95;;;;;;;17.22;51.25;101381.28;5084769;28;20087;-60
2023/05/22 04:52:11;;;;;;;5.82;4.10;;;;;;;17.22;51.12;101381.28;5079911;28;20084;-60
2023/05/22 04:54:38;;;;;;;5.97;4.03;;;;;;;17.17;51.73;101370.91;5081476;28;20105;-60
2023/05/22 04:57:04;;;;;;;6.90;4.75;;;;;;;17.16;51.65;101373.66;5088456;28;20047;-60
2023/05/22 04:59:36;;;;;;;12.07;4.97;;;;;;;17.10;52.48;101374.03;5087949;28;20048;-60
2023/05/22 05:02:06;;;;;;;9.82;4.00;;;;;;;17.06;52.02;101368.91;5082377;28;20063;-60
2023/05/22 05:04:33;;;;;;;9.60;4.97;;;;;;;16.97;52.07;101369.50;5084962;28;20060;-60
2023/05/22 05:07:01;;;;;;;6.75;4.45;;;;;;;17.01;52.04;101365.66;5083026;28;20627;-60
2023/05/22 05:09:28;;;;;;;5.90;3.95;;;;;;;17.02;52.39;101372.72;5085085;28;20040;-60
2023/05/22 05:11:54;;;;;;;7.70;4.50;;;;;;;17.01;52.32;101362.16;5083511;28;20048;-60
2023/05/22 05:14:21;;;;;;;11.07;4.63;;;;;;;16.95;52.60;101366.06;5084501;28;20055;-60
2023/05/22 05:16:47;;;;;;;11.82;4.25;;;;;;;16.92;53.20;101370.72;5092640;28;20058;-60
2023/05/22 05:19:15;;;;;;;8.45;4.53;;;;;;;16.95;52.64;101366.06;5080524;28;20052;-60
2023/05/22 05:21:42;;;;;;;11.57;4.53;;;;;;;16.96;52.81;101373.09;5082529;28;20487;-60
2023/05/22 05:24:08;;;;;;;6.88;4.55;;;;;;;16.94;52.78;101364.34;5084553;28;20477;-60
2023/05/22 05:26:35;;;;;;;17.17;5.47;;;;;;;16.96;52.63;101362.44;5092416;28;20352;-60
2023/05/22 05:29:02;;;;;;;10.10;4.53;;;;;;;16.98;52.65;101368.53;5090708;28;20044;-60
2023/05/22 05:31:28;;;;;;;10.00;4.50;;;;;;;16.96;53.30;101377.59;5080525;28;20131;-60
2023/05/22 05:33:57;;;;;;;8.27;4.40;;;;;;;17.00;53.43;101369.31;5092611;28;20476;-60
2023/05/22 05:36:24;;;;;;;10.05;4.40;;;;;;;16.97;53.22;101379.34;5091744;28;20052;-60
2023/05/22 05:38:50;;;;;;;8.27;4.22;;;;;;;16.98;53.56;101376.53;5085413;28;20076;-60
2023/05/22 05:41:17;;;;;;;8.80;5.07;;;;;;;17.01;53.26;101372.81;5082778;28;20081;-60
2023/05/22 05:43:44;;;;;;;9.40;4.63;;;;;;;17.04;53.33;101380.66;5092448;28;20130;-60
2023/05/22 05:46:11;;;;;;;15.50;5.20;;;;;;;17.02;53.70;101378.06;5091117;28;20086;-60
2023/05/22 05:48:38;;;;;;;13.05;4.70;;;;;;;17.10;53.56;101382.06;5074062;28;20040;-60
2023/05/22 05:51:04;;;;;;;12.68;4.82;;;;;;;17.22;53.22;101379.47;5087338;28;20426;-60
2023/05/22 05:53:31;;;;;;;14.93;4.50;;;;;;;17.33;53.60;101386.81;5088805;28;20044;-60
2023/05/22 05:55:58;;;;;;;6.45;4.50;;;;;;;17.40;53.15;101388.13;5087152;28;20052;-60
2023/05/22 05:58:24;;;;;;;7.45;4.63;;;;;;;17.54;52.79;101379.22;5071450;28;20156;-61
2023/05/22 06:00:51;;;;;;;14.77;5.32;;;;;;;17.60;52.16;101375.28;5079615;28;20078;-61
2023/05/22 06:03:17;;;;;;;8.40;4.60;;;;;;;17.69;52.37;101382.72;5084966;28;20131;-61
2023/05/22 06:05:48;;;;;;;7.82;4.80;;;;;;;17.78;52.05;101376.75;5088943;28;20093;-62
2023/05/22 06:08:15;;;;;;;9.63;4.57;;;;;;;17.90;51.14;101377.78;5088380;28;20486;-61
2023/05/22 06:10:41;;;;;;;7.78;5.20;;;;;;;17.93;51.62;101368.69;5091616;28;20075;-61
2023/05/22 06:13:08;;;;;;;13.25;4.43;;;;;;;17.96;51.75;101379.19;5091500;28;20650;-60
2023/05/22 06:15:34;;;;;;;12.02;5.22;;;;;;;17.93;51.48;101371.38;5080959;28;20097;-62
2023/05/22 06:18:01;;;;;;;8.90;5.63;;;;;;;18.06;51.39;101374.94;5079170;28;20452;-60
2023/05/22 06:20:28;;;;;;;7.93;5.30;;;;;;;18.14;51.18;101375.28;5091783;28;20047;-60
2023/05/22 06:22:54;;;;;;;11.35;5.00;;;;;;;18.30;50.98;101364.38;5090653;28;20048;-60
2023/05/22 06:25:22;;;;;;;9.40;4.60;;;;;;;18.45;51.08;101375.84;5084638;28;20051;-61
2023/05/22 06:27:49;;;;;;;8.85;5.25;;;;;;;18.64;50.10;101372.75;5086690;28;20066;-60
2023/05/22 06:30:15;;;;;;;9.38;4.60;;;;;;;18.79;49.40;101375.34;5089168;28;20055;-60
2023/05/22 06:32:57;;;;;;;14.55;5.50;;;;;;;18.81;49.72;101370.72;5079725;28;20080;-60
2023/05/22 06:35:24;;;;;;;12.32;5.50;;;;;;;18.85;49.26;101375.78;5084172;28;20063;-60
2023/05/22 06:37:51;;;;;;;9.38;4.55;;;;;;;19.04;49.50;101371.78;5091542;28;20416;-61
2023/05/22 06:40:17;;;;;;;11.38;4.93;;;;;;;19.18;49.49;101373.47;5090900;28;20048;-60
2023/05/22 06:42:44;;;;;;;10.25;5.38;;;;;;;19.25;49.47;101370.22;5088351;28;20442;-60
2023/05/22 06:45:10;;;;;;;14.98;4.75;;;;;;;19.36;48.94;101387.38;5082611;28;20048;-60
2023/05/22 06:47:37;;;;;;;7.07;5.13;;;;;;;19.37;48.95;101378.34;5088722;28;20055;-60
2023/05/22 06:50:05;;;;;;;7.07;5.07;;;;;;;19.49;48.96;101376.63;5088176;28;20456;-60
2023/05/22 06:52:32;;;;;;;12.98;4.95;;;;;;;19.44;48.65;101375.13;5080741;28;20054;-60
2023/05/22 06:55:03;;;;;;;11.82;5.35;;;;;;;19.39;49.03;101387.16;5085359;28;20127;-60
2023/05/22 06:57:31;;;;;;;17.02;5.50;;;;;;;19.48;49.18;101369.53;5083260;28;20052;-61
2023/05/22 06:59:57;;;;;;;13.23;4.75;;;;;;;19.47;49.01;101371.38;5085584;28;20454;-60
2023/05/22 07:02:24;;;;;;;10.52;4.72;;;;;;;19.55;49.62;101371.66;5077307;28;20071;-59
2023/05/22 07:04:52;;;;;;;9.70;4.93;;;;;;;19.56;49.15;101362.63;5089018;28;20074;-59
2023/05/22 07:07:19;;;;;;;22.63;6.05;;;;;;;19.63;48.84;101371.06;5086032;28;20382;-57
2023/05/22 07:09:46;;;;;;;14.07;5.25;;;;;;;19.71;48.72;101375.88;5083440;28;20076;-59
2023/05/22 07:12:12;;;;;;;11.98;5.15;;;;;;;19.68;48.63;101376.97;5082855;28;20094;-57
2023/05/22 07:14:39;;;;;;;9.85;5.22;;;;;;;19.86;48.80;101376.56;5075575;28;20082;-59
2023/05/22 07:17:05;;;;;;;12.57;5.45;;;;;;;20.02;48.28;101378.97;5084070;28;20084;-59
2023/05/22 07:19:32;;;;;;;10.25;5.68;;;;;;;20.21;47.63;101373.06;5083470;28;20517;-61
2023/05/22 07:21:59;;;;;;;6.50;4.75;;;;;;;20.29;47.73;101376.84;5082449;28;20052;-58
2023/05/22 07:24:26;;;;;;;10.70;5.10;;;;;;;20.16;47.95;101370.72;5081241;28;20063;-59
2023/05/22 07:26:52;;;;;;;10.90;5.53;;;;;;;20.06;48.30;101369.69;5084343;28;20102;-58
2023/05/22 07:29:19;;;;;;;9.45;4.90;;;;;;;20.13;48.23;101370.97;5080082;28;20131;-59
2023/05/22 07:31:48;;;;;;;11.00;5.20;;;;;;;20.22;48.02;101364.91;5094136;28;20059;-58
2023/05/22 07:34:16;;;;;;;9.75;5.15;;;;;;;20.29;47.88;101371.50;5094169;28;20137;-58
2023/05/22 07:36:42;;;;;;;11.10;5.28;;;;;;;20.38;48.11;101374.44;5091353;28;20079;-58
2023/05/22 07:39:09;;;;;;;8.38;4.65;;;;;;;20.51;47.96;101377.88;5087507;28;20040;-58
2023/05/22 07:41:35;;;;;;;14.18;4.40;;;;;;;20.60;47.34;101369.13;5114655;28;20052;-59
2023/05/22 07:44:02;;;;;;;12.18;4.93;;;;;;;20.77;47.11;101367.81;5085470;28;20044;-58
2023/05/22 07:46:28;;;;;;;7.60;5.38;;;;;;;20.90;46.61;101373.06;5086841;28;20079;-59
2023/05/22 07:48:55;;;;;;;13.80;4.95;;;;;;;21.06;46.42;101370.84;5092043;28;20044;-57
2023/05/22 07:51:22;;;;;;;12.38;5.72;;;;;;;21.15;46.60;101365.72;5083241;28;20075;-59
2023/05/22 07:53:48;;;;;;;10.60;5.25;;;;;;;21.15;46.51;101368.41;5079714;28;20625;-59
2023/05/22 07:56:16;;;;;;;8.82;5.15;;;;;;;21.18;46.31;101365.47;5082676;28;20044;-59
2023/05/22 07:58:43;;;;;;;6.13;4.88;;;;;;;21.20;46.70;101361.69;5092477;28;20135;-59
2023/05/22 08:01:09;;;;;;;10.80;5.80;;;;;;;21.57;45.77;101363.22;5082399;28;20049;-59
2023/05/22 08:03:36;;;;;;;9.88;5.30;;;;;;;21.77;45.51;101367.81;5088159;28;20047;-59
2023/05/22 08:06:03;;;;;;;6.40;4.80;;;;;;;21.50;46.09;101356.66;5078262;28;20512;-59
2023/05/22 08:08:30;;;;;;;9.90;4.82;;;;;;;21.82;45.60;101367.41;5088660;28;20109;-59
2023/05/22 08:10:57;;;;;;;13.65;5.70;;;;;;;21.97;45.16;101365.25;5099562;28;20055;-58
2023/05/22 08:13:27;;;;;;;10.63;4.75;;;;;;;22.10;44.81;101360.56;5080480;28;20048;-58
2023/05/22 08:15:53;;;;;;;13.15;4.90;;;;;;;22.07;44.56;101360.81;5072861;28;20076;-59
2023/05/22 08:18:27;;;;;;;15.07;5.47;;;;;;;22.05;44.77;101357.41;5085878;28;20354;-58
2023/05/22 08:20:55;;;;;;;8.18;4.53;;;;;;;21.81;45.13;101354.94;5081568;28;20054;-60
2023/05/22 08:23:21;;;;;;;12.63;4.88;;;;;;;22.05;44.98;101357.41;5074907;28;20052;-60
2023/05/22 08:25:49;;;;;;;7.10;4.45;;;;;;;22.49;43.90;101344.69;5090799;28;20059;-60
2023/05/22 08:28:16;;;;;;;8.35;4.25;;;;;;;22.77;43.65;101350.38;5087599;28;20072;-61
2023/05/22 08:30:42;;;;;;;12.90;4.78;;;;;;;22.86;43.13;101341.44;5087215;28;20421;-60
2023/05/22 08:33:10;;;;;;;10.75;4.30;;;;;;;23.05;43.20;101350.59;5083945;28;20071;-60
2023/05/22 08:35:37;;;;;;;10.57;4.53;;;;;;;22.96;43.60;101343.34;5081847;28;20131;-59
2023/05/22 08:38:04;;;;;;;12.23;4.90;;;;;;;22.95;43.25;101344.31;5075980;28;20059;-60
2023/05/22 08:40:36;;;;;;;7.18;4.85;;;;;;;22.77;43.30;101342.28;5087983;28;20169;-60
2023/05/22 08:43:06;;;;;;;17.88;4.40;;;;;;;22.86;43.50;101343.28;5073528;28;20144;-59
2023/05/22 08:45:33;;;;;;;10.65;5.28;;;;;;;22.68;43.13;101335.84;5090392;28;20143;-56
2023/05/22 08:48:05;;;;;;;9.90;4.90;;;;;;;22.92;43.26;101346.28;5087682;28;20044;-57
2023/05/22 08:50:35;;;;;;;7.28;4.43;;;;;;;23.09;43.26;101338.59;5085996;28;20123;-57
2023/05/22 08:53:05;;;;;;;9.05;4.55;;;;;;;23.46;41.90;101337.97;5088051;28;20059;-56
2023/05/22 08:55:33;;;;;;;8.20;4.28;;;;;;;23.98;40.93;101333.16;5091311;28;20048;-57
2023/05/22 08:58:00;;;;;;;6.65;4.40;;;;;;;24.17;40.45;101323.31;5091994;28;20084;-59
2023/05/22 09:00:28;;;;;;;14.57;5.82;;;;;;;23.97;40.46;101317.94;5089888;28;20475;-57
2023/05/22 09:02:56;;;;;;;11.80;4.72;;;;;;;24.16;40.53;101318.91;5088401;28;20052;-58
2023/05/22 09:05:25;;;;;;;11.60;5.88;;;;;;;24.08;40.11;101316.09;5090780;28;20621;-57
2023/05/22 09:07:53;;;;;;;14.10;5.10;;;;;;;24.24;39.68;101329.84;5087575;28;20058;-57
2023/05/22 09:10:24;;;;;;;9.35;4.93;;;;;;;24.26;39.82;101321.59;5087642;28;20044;-57
2023/05/22 09:13:08;;;;;;;11.63;4.32;;;;;;;24.04;40.64;101320.09;5090040;28;20444;-58
2023/05/22 09:15:35;;;;;;;9.02;4.43;;;;;;;23.89;40.43;101312.41;5086584;28;20103;-60
2023/05/22 09:18:03;;;;;;;6.05;4.20;;;;;;;23.73;40.97;101322.91;5084626;28;20048;-58
2023/05/22 09:20:37;;;;;;;9.30;4.10;;;;;;;23.54;40.94;101318.34;5085436;28;20513;-57
2023/05/22 09:23:18;;;;;;;20.40;5.20;;;;;;;23.71;40.54;101309.56;5089397;28;20083;-58
2023/05/22 09:25:45;;;;;;;8.98;5.43;;;;;;;24.02;40.00;101311.28;5088751;28;20124;-58
2023/05/22 09:28:12;;;;;;;8.52;4.35;;;;;;;24.46;39.17;101308.91;5082171;28;20422;-59
2023/05/22 09:30:40;;;;;;;10.23;4.20;;;;;;;24.62;38.24;101305.56;5081576;28;20139;-58
2023/05/22 09:33:11;;;;;;;9.38;4.22;;;;;;;25.17;36.84;101297.47;5069484;28;20046;-58
2023/05/22 09:35:38;;;;;;;10.77;4.10;;;;;;;25.37;36.10;101302.78;5073136;28;20087;-58
2023/05/22 09:38:05;;;;;;;14.18;3.67;;;;;;;25.74;35.92;101283.66;5072944;28;20044;-60
2023/05/22 09:40:33;;;;;;;8.75;4.20;;;;;;;26.07;34.97;101293.94;5076055;28;20036;-58
2023/05/22 09:43:05;;;;;;;16.25;7.95;;;;;;;26.14;34.47;101290.44;5073181;28;20072;-61
2023/05/22 09:45:34;;;;;;;9.23;3.95;;;;;;;25.96;35.31;101286.91;5075611;28;20040;-58
2023/05/22 09:48:02;;;;;;;10.77;3.33;;;;;;;25.98;34.31;101290.31;5075862;28;20086;-59
2023/05/22 09:50:30;;;;;;;4.95;3.08;;;;;;;25.70;34.33;101293.13;5077616;28;20063;-59
2023/05/22 09:53:00;;;;;;;12.57;3.30;;;;;;;25.74;34.23;101288.22;5069884;28;20049;-60
2023/05/22 09:55:27;;;;;;;9.27;3.08;;;;;;;25.52;34.44;101294.97;5076028;28;20079;-59
2023/05/22 09:57:55;;;;;;;7.25;3.40;;;;;;;25.16;34.76;101300.31;5079147;28;20367;-58
2023/05/22 10:00:23;;;;;;;11.82;3.78;;;;;;;25.24;34.34;101281.47;5072229;28;20050;-58
2023/05/22 10:03:23;;;;;;;9.07;3.75;;;;;;;25.59;34.06;101279.81;5073041;28;20059;-59
2023/05/22 10:05:52;;;;;;;7.13;3.40;;;;;;;25.67;34.43;101277.19;5019078;28;20056;-58
2023/05/22 10:08:23;;;;;;;7.68;3.63;;;;;;;25.78;34.38;101279.66;5073200;28;20070;-59
2023/05/22 10:10:52;;;;;;;13.20;3.88;;;;;;;25.82;34.11;101274.75;5073281;28;20058;-58
2023/05/22 10:13:20;;;;;;;12.27;3.28;;;;;;;26.28;33.92;101280.00;5071378;28;20082;-59
2023/05/22 10:15:48;;;;;;;13.63;4.57;;;;;;;26.62;33.97;101281.91;5074133;28;20063;-59
2023/05/22 10:18:16;;;;;;;6.05;3.15;;;;;;;26.36;33.67;101271.94;5079165;28;20048;-59
2023/05/22 10:20:45;;;;;;;6.70;3.25;;;;;;;26.21;33.29;101262.72;5076383;28;20040;-58
2023/05/22 10:23:14;;;;;;;8.20;3.30;;;;;;;26.47;32.70;101274.38;5072920;28;20101;-58
2023/05/22 10:25:41;;;;;;;5.38;3.03;;;;;;;26.63;32.46;101273.59;5091083;28;20067;-58
2023/05/22 10:28:09;;;;;;;8.88;3.85;;;;;;;26.64;32.75;101269.06;5090902;28;20434;-59
2023/05/22 10:30:39;;;;;;;10.55;2.95;;;;;;;26.64;32.29;101264.47;5076149;28;20503;-59
2023/05/22 10:33:15;;;;;;;9.88;3.60;;;;;;;26.72;31.83;101267.22;5082931;28;20055;-59
2023/05/22 10:35:57;;;;;;;13.13;4.03;;;;;;;26.86;31.66;101265.75;5083248;28;20058;-60
2023/05/22 10:38:27;;;;;;;12.27;3.63;;;;;;;27.09;31.40;101273.28;5083833;28;20044;-59
2023/05/22 10:40:54;;;;;;;9.68;3.25;;;;;;;27.31;31.64;101260.13;5089093;28;20048;-58
2023/05/22 10:43:21;;;;;;;10.25;3.15;;;;;;;27.72;31.60;101268.28;5081520;28;20055;-59
2023/05/22 10:45:48;;;;;;;6.93;3.63;;;;;;;28.04;30.60;101259.28;5083387;28;20676;-59
2023/05/22 10:48:20;;;;;;;6.20;3.17;;;;;;;28.36;29.88;101255.63;5092432;28;20044;-59
2023/05/22 10:50:53;;;;;;;11.10;3.70;;;;;;;28.87;29.40;101252.53;5082794;28;20055;-59
2023/05/22 10:53:23;;;;;;;4.38;3.13;;;;;;;28.58;29.16;101249.63;5080459;28;20137;-60
2023/05/22 10:55:52;;;;;;;9.95;3.35;;;;;;;28.73;29.26;101245.97;5082638;28;20055;-57
2023/05/22 10:58:37;;;;;;;7.43;3.70;;;;;;;28.47;29.41;101239.94;5074227;28;20466;-59
2023/05/22 11:01:20;;;;;;;5.72;3.08;;;;;;;28.06;29.88;101242.81;5081420;28;20039;-59
2023/05/22 11:04:10;;;;;;;7.47;3.17;;;;;;;28.23;29.36;101236.28;5088377;28;20054;-59
2023/05/22 11:06:45;;;;;;;5.38;2.97;;;;;;;27.92;30.37;101231.59;5080007;28;20064;-60
2023/05/22 11:09:30;;;;;;;8.10;3.60;;;;;;;28.32;29.78;101232.53;5084159;28;20145;-57
2023/05/22 11:12:29;;;;;;;8.13;3.22;;;;;;;28.43;28.87;101230.44;5083874;28;20048;-59
2023/05/22 11:15:04;;;;;;;5.85;3.20;;;;;;;29.03;28.18;101224.41;5084658;28;20117;-59
2023/05/22 11:17:35;;;;;;;12.52;3.13;;;;;;;29.22;27.80;101227.69;5082083;28;20101;-58
2023/05/22 11:20:04;;;;;;;8.27;3.60;;;;;;;28.70;28.23;101230.00;5088323;28;20052;-59
2023/05/22 11:22:35;;;;;;;8.27;3.27;;;;;;;29.03;27.87;101224.41;5083971;28;20048;-58
2023/05/22 11:25:08;;;;;;;7.40;4.00;;;;;;;28.61;27.95;101214.78;5080963;28;20059;-58
2023/05/22 11:27:36;;;;;;;6.93;3.42;;;;;;;28.77;28.30;101219.25;5079826;28;20049;-58
2023/05/22 11:30:02;;;;;;;5.72;3.33;;;;;;;27.83;28.89;101216.31;5078417;28;20040;-57